CYZV

Sept-Îles Airport

Sept-Îles, Quebec, Canada
TAF CYZV 221740Z 2218/2318 13010KT 5SM BR BKN007 OVC012 TEMPO 2218/2223 P6SM NSW SCT007 BKN012 PROB30 2218/2223 2SM BR BKN003 FM222300 08005KT 3SM BR BKN005 TEMPO 2223/2305 6SM BR SCT005 OVC010 FM230500 VRB03KT 1/2SM -SHRA FG VV002 PROB30 2305/2312 1/4SM FG VV001 FM231200 VRB03KT 1/2SM FG VV002 FM231400 19008KT P6SM FEW002 BKN080 RMK NXT FCST BY 230000Z
Issued Valid From Valid To
Jul-22 @ 17:40 UTC
(3 hours ago)
Jul-22 @ 18:00 UTC
(2 hours ago)
Jul-23 @ 18:00 UTC
(in 22 hours)
Jul-22 @ 18:00 to Jul-22 @ 23:00
TAF CYZV 221740Z 2218/2318 13010KT 5SM BR BKN007 OVC012
Wind Visibility Clouds Conditions
130° at 10 knots 5 miles
  • Broken at 700' AGL
  • Overcast at 1,200' AGL
  • Mist
Probable  (Probability 30%) Jul-22 @ 18:00 to Jul-22 @ 23:00
PROB30 2218/2223 2SM BR BKN003
Visibility Clouds Conditions
2 miles
  • Broken at 300' AGL
  • Mist
Temporary Jul-22 @ 18:00 to Jul-22 @ 23:00
TEMPO 2218/2223 P6SM NSW SCT007 BKN012
Visibility Clouds Conditions
Greater than 6 miles
  • Scattered at 700' AGL
  • Broken at 1,200' AGL
Temporary Jul-22 @ 23:00 to Jul-23 @ 05:00
TEMPO 2223/2305 6SM BR SCT005 OVC010
Visibility Clouds Conditions
6 miles
  • Scattered at 500' AGL
  • Overcast at 1,000' AGL
  • Mist
From Jul-22 @ 23:00 to Jul-23 @ 05:00
FM222300 08005KT 3SM BR BKN005
Wind Visibility Clouds Conditions
80° at 5 knots 3 miles
  • Broken at 500' AGL
  • Mist
Probable  (Probability 30%) Jul-23 @ 05:00 to Jul-23 @ 12:00
PROB30 2305/2312 1/4SM FG VV001
Visibility Clouds Conditions
1/4 miles
  • Vertical visibility at 100' AGL
  • Fog
From Jul-23 @ 05:00 to Jul-23 @ 12:00
FM230500 VRB03KT 1/2SM -SHRA FG VV002
Wind Visibility Clouds Conditions
Variable at 3 knots 1/2 miles
  • Vertical visibility at 200' AGL
  • Light Rain
  • Fog
From Jul-23 @ 12:00 to Jul-23 @ 14:00
FM231200 VRB03KT 1/2SM FG VV002
Wind Visibility Clouds Conditions
Variable at 3 knots 1/2 miles
  • Vertical visibility at 200' AGL
  • Fog
From Jul-23 @ 14:00 to Jul-23 @ 18:00
FM231400 19008KT P6SM FEW002 BKN080 RMK NXT FCST BY 230000Z
Wind Visibility Clouds
190° at 8 knots Greater than 6 miles
  • Few at 200' AGL
  • Broken at 8,000' AGL
TAF CYZV 221740Z 2218/2318 13010KT 5SM BR BKN007 OVC012 TEMPO 2218/2223 P6SM NSW SCT007 BKN012 PROB30 2218/2223 2SM BR BKN003 FM222300 08005KT 3SM BR BKN005 TEMPO 2223/2305 6SM BR SCT005 OVC010 FM230500 VRB03KT 1/2SM -SHRA FG VV002 PROB30 2305/2312 1/4SM FG VV001 FM231200 VRB03KT 1/2SM FG VV002 FM231400 19008KT P6SM FEW002 BKN080 RMK NXT FCST BY 230000Z
Issued Jul-22 @ 17:40 UTC
(3 hours ago)
Valid From Jul-22 @ 18:00 UTC
(2 hours ago)
Valid To Jul-23 @ 18:00 UTC
(in 22 hours)
Jul-22 @ 18:00 - Jul-22 @ 23:00
Wind Visibility
130° at 10 knots 5 miles
Clouds
  • Broken at 700' AGL
  • Overcast at 1,200' AGL
Conditions
  • Mist
Probability 30% Probable Jul-22 @ 18:00 - Jul-22 @ 23:00
Clouds
  • Broken at 300' AGL
Conditions
  • Mist
Temporary Jul-22 @ 18:00 - Jul-22 @ 23:00
Clouds
  • Scattered at 700' AGL
  • Broken at 1,200' AGL
Conditions
Temporary Jul-22 @ 23:00 - Jul-23 @ 05:00
Clouds
  • Scattered at 500' AGL
  • Overcast at 1,000' AGL
Conditions
  • Mist
From Jul-22 @ 23:00 - Jul-23 @ 05:00
Wind Visibility
80° at 5 knots 3 miles
Clouds
  • Broken at 500' AGL
Conditions
  • Mist
Probability 30% Probable Jul-23 @ 05:00 - Jul-23 @ 12:00
Clouds
  • Vertical visibility at 100' AGL
Conditions
  • Fog
From Jul-23 @ 05:00 - Jul-23 @ 12:00
Wind Visibility
Variable at 3 knots 1/2 miles
Clouds
  • Vertical visibility at 200' AGL
Conditions
  • Light Rain
  • Fog
From Jul-23 @ 12:00 - Jul-23 @ 14:00
Wind Visibility
Variable at 3 knots 1/2 miles
Clouds
  • Vertical visibility at 200' AGL
Conditions
  • Fog
From Jul-23 @ 14:00 - Jul-23 @ 18:00
Wind Visibility
190° at 8 knots Greater than 6 miles
Clouds
  • Few at 200' AGL
  • Broken at 8,000' AGL